Time;durP1;ratioP1;P1;durP2;ratioP2;P2;SDS_P1;SDS_P2;PMS_P1;PMS_P2;Temp;Humidity;BMP_temperature;BMP_pressure;BME280_temperature;BME280_humidity;BME280_pressure;Samples;Min_cycle;Max_cycle;Signal;HPM_P1;HPM_P2
2021/06/09 00:00:34;;;;;;;10.13;5.68;;;;;;;16.38;55.08;96876.95;127853;1093;22838;-90
2021/06/09 00:03:20;;;;;;;7.87;4.97;;;;;;;16.42;55.35;96869.88;127763;1093;113800;-90
2021/06/09 00:05:53;;;;;;;7.38;5.23;;;;;;;16.47;55.32;96872.43;127880;1093;22793;-89
2021/06/09 00:08:25;;;;;;;7.80;5.40;;;;;;;16.44;55.38;96873.02;127725;1093;114019;-92
2021/06/09 00:10:56;;;;;;;9.65;5.80;;;;;;;16.36;55.30;96871.12;127853;1093;33099;-93
2021/06/09 00:13:30;;;;;;;7.53;5.35;;;;;;;16.17;55.72;96873.21;127869;1093;22849;-91
2021/06/09 00:16:04;;;;;;;6.70;4.30;;;;;;;15.93;55.92;96874.37;127748;1093;113971;-90
2021/06/09 00:18:35;;;;;;;6.73;4.30;;;;;;;15.79;56.71;96884.34;127859;1093;23568;-92
2021/06/09 00:21:06;;;;;;;5.78;4.90;;;;;;;15.77;56.79;96878.52;127785;1093;113528;-91
2021/06/09 00:23:38;;;;;;;6.15;4.55;;;;;;;15.69;56.85;96874.67;127835;1093;22841;-91
2021/06/09 00:26:09;;;;;;;4.90;4.35;;;;;;;15.64;57.10;96877.48;127794;1093;114797;-91
2021/06/09 00:28:40;;;;;;;5.50;4.00;;;;;;;15.52;57.55;96877.20;127886;1093;22865;-90
2021/06/09 00:31:11;;;;;;;5.75;4.00;;;;;;;15.51;57.61;96888.19;127860;1093;22792;-91
2021/06/09 00:33:42;;;;;;;6.15;4.10;;;;;;;15.55;58.04;96891.83;127723;1093;114057;-93
2021/06/09 00:36:13;;;;;;;6.03;4.35;;;;;;;15.47;58.13;96881.85;127886;1093;22944;-90
2021/06/09 00:38:44;;;;;;;7.40;4.18;;;;;;;15.43;58.61;96879.80;127827;1092;114188;-90
2021/06/09 00:41:15;;;;;;;4.33;3.40;;;;;;;15.40;58.90;96888.42;127902;1093;22857;-91
2021/06/09 00:43:47;;;;;;;4.50;3.90;;;;;;;15.41;58.95;96889.99;127916;1092;24427;-89
2021/06/09 00:46:18;;;;;;;7.78;4.45;;;;;;;15.49;58.92;96885.04;127790;1093;113402;-90
2021/06/09 00:48:48;;;;;;;5.93;4.25;;;;;;;15.58;58.97;96881.31;127874;1090;22787;-90
2021/06/09 00:51:19;;;;;;;6.45;4.43;;;;;;;15.64;58.89;96877.48;127736;1093;114159;-91
2021/06/09 00:53:52;;;;;;;7.83;5.35;;;;;;;15.60;58.65;96875.70;127839;1093;23934;-90
2021/06/09 00:56:26;;;;;;;8.15;4.90;;;;;;;15.59;58.93;96876.77;127752;1093;113935;-90
2021/06/09 00:58:57;;;;;;;6.50;4.90;;;;;;;15.63;58.89;96875.11;127864;1093;23807;-94
2021/06/09 01:01:29;;;;;;;8.30;5.20;;;;;;;15.68;59.17;96878.44;127876;1091;22805;-92
2021/06/09 01:04:02;;;;;;;8.73;5.10;;;;;;;15.73;58.83;96874.84;127756;1093;113608;-91
2021/06/09 01:06:33;;;;;;;8.55;5.10;;;;;;;15.77;58.92;96867.03;127860;1093;23537;-95
2021/06/09 01:09:07;;;;;;;8.13;5.53;;;;;;;15.81;58.84;96868.78;127799;1093;114079;-94
2021/06/09 01:11:38;;;;;;;9.63;5.10;;;;;;;15.76;58.83;96871.56;127840;1092;24090;-90
2021/06/09 01:14:09;;;;;;;7.18;4.93;;;;;;;15.73;58.81;96866.83;127757;1093;114690;-90
2021/06/09 01:16:40;;;;;;;7.83;5.05;;;;;;;15.74;59.05;96871.08;127860;1093;23116;-90
2021/06/09 01:19:11;;;;;;;7.60;4.75;;;;;;;15.76;59.14;96868.09;127882;1092;22928;-90
2021/06/09 01:21:42;;;;;;;6.43;5.05;;;;;;;15.71;58.96;96866.34;127764;1093;114166;-93
2021/06/09 01:24:13;;;;;;;8.35;5.48;;;;;;;15.59;59.09;96863.40;127846;1093;22982;-92
2021/06/09 01:26:44;;;;;;;7.83;5.30;;;;;;;15.53;59.34;96864.63;127801;1093;113579;-90
2021/06/09 01:29:17;;;;;;;6.05;4.68;;;;;;;15.46;59.45;96862.36;127922;1093;23471;-90
2021/06/09 01:31:48;;;;;;;7.30;5.15;;;;;;;15.42;59.79;96864.86;127921;1093;22799;-90
2021/06/09 01:34:19;;;;;;;6.83;5.03;;;;;;;15.41;60.00;96857.94;127772;1093;113448;-89
2021/06/09 01:36:50;;;;;;;6.37;4.97;;;;;;;15.40;59.91;96861.70;127866;1090;22795;-89
2021/06/09 01:39:21;;;;;;;7.00;5.55;;;;;;;15.37;60.02;96856.97;127744;1093;113520;-90
2021/06/09 01:41:53;;;;;;;6.50;4.95;;;;;;;15.35;60.07;96863.71;127848;1090;25495;-90
2021/06/09 01:44:24;;;;;;;7.33;5.35;;;;;;;15.40;60.49;96852.90;127758;1092;114144;-91
2021/06/09 01:46:56;;;;;;;8.83;5.90;;;;;;;15.50;60.50;96857.22;127834;1093;25836;-93
2021/06/09 01:49:28;;;;;;;9.18;5.95;;;;;;;15.58;60.31;96856.48;127867;1093;22880;-89
2021/06/09 01:51:59;;;;;;;9.05;6.15;;;;;;;15.60;60.22;96860.45;127754;1091;114034;-91
2021/06/09 01:54:30;;;;;;;7.23;5.60;;;;;;;15.66;60.02;96866.48;127888;1093;22782;-89
2021/06/09 01:57:01;;;;;;;8.17;6.00;;;;;;;15.67;59.90;96860.05;127753;1091;114302;-92
2021/06/09 01:59:34;;;;;;;8.85;6.03;;;;;;;15.68;59.87;96864.29;127900;1093;22852;-95
2021/06/09 02:02:05;;;;;;;9.03;5.70;;;;;;;15.69;59.74;96853.30;127754;1091;113776;-92
2021/06/09 02:04:36;;;;;;;7.05;5.15;;;;;;;15.71;59.76;96855.66;127867;1093;26551;-89
2021/06/09 02:07:07;;;;;;;8.13;5.93;;;;;;;15.65;59.74;96857.67;127856;1090;26554;-91
2021/06/09 02:09:40;;;;;;;10.55;6.30;;;;;;;15.67;59.68;96855.48;127767;1093;113911;-91
2021/06/09 02:12:11;;;;;;;7.48;5.38;;;;;;;15.65;59.66;96852.33;127836;1093;23085;-90
2021/06/09 02:14:44;;;;;;;10.23;6.05;;;;;;;15.66;59.66;96853.12;127757;1093;114348;-91
2021/06/09 02:17:15;;;;;;;9.68;5.98;;;;;;;15.64;59.61;96855.31;127910;1093;22804;-91
2021/06/09 02:19:46;;;;;;;8.53;5.90;;;;;;;15.63;59.60;96859.08;127892;1093;23536;-90
2021/06/09 02:22:17;;;;;;;6.88;5.73;;;;;;;15.67;59.73;96860.05;127812;1093;113358;-92
2021/06/09 02:24:49;;;;;;;7.08;5.10;;;;;;;15.74;59.67;96860.39;127910;1093;26182;-90
2021/06/09 02:27:20;;;;;;;7.58;5.28;;;;;;;15.79;59.52;96849.59;127759;1093;113980;-90
2021/06/09 02:29:50;;;;;;;7.68;5.78;;;;;;;15.82;59.61;96851.64;127893;1093;23904;-90
2021/06/09 02:32:21;;;;;;;7.08;5.50;;;;;;;15.85;59.41;96853.70;127743;1093;114670;-91
2021/06/09 02:34:52;;;;;;;8.23;5.75;;;;;;;15.87;59.48;96854.18;127858;1093;32040;-89
2021/06/09 02:37:24;;;;;;;8.85;6.35;;;;;;;15.86;59.27;96855.28;127909;1093;23177;-88
2021/06/09 02:39:55;;;;;;;9.83;6.28;;;;;;;15.79;59.40;96849.59;127772;1093;113705;-89
2021/06/09 02:42:25;;;;;;;9.90;6.38;;;;;;;15.70;59.58;96854.08;127845;1093;23339;-89
2021/06/09 02:44:56;;;;;;;9.38;7.13;;;;;;;15.60;59.83;96854.31;127751;1092;113926;-89
2021/06/09 02:47:28;;;;;;;8.33;6.30;;;;;;;15.59;60.13;96848.19;127851;1093;23089;-89
2021/06/09 02:50:00;;;;;;;8.83;6.30;;;;;;;15.61;60.19;96850.55;127739;1093;113659;-89
2021/06/09 02:52:46;;;;;;;8.43;6.20;;;;;;;15.62;59.91;96852.95;127862;1093;24347;-91
2021/06/09 02:55:30;;;;;;;10.23;6.35;;;;;;;15.65;60.19;96852.33;127864;1093;22841;-89
2021/06/09 02:58:08;;;;;;;7.30;5.60;;;;;;;15.67;59.96;96857.37;127755;1092;113683;-91
2021/06/09 03:00:52;;;;;;;12.10;6.48;;;;;;;15.65;60.11;96856.89;127879;1092;28781;-91
2021/06/09 03:03:31;;;;;;;10.58;6.60;;;;;;;15.66;60.26;96859.25;127785;1092;114443;-88
2021/06/09 03:06:07;;;;;;;9.23;6.48;;;;;;;15.68;60.42;96856.27;127853;1091;25119;-89
2021/06/09 03:08:43;;;;;;;8.90;5.68;;;;;;;15.73;60.27;96853.47;127775;1092;113670;-88
2021/06/09 03:11:24;;;;;;;8.30;5.85;;;;;;;15.76;60.31;96852.06;127940;1093;23306;-88
2021/06/09 03:14:04;;;;;;;10.43;6.18;;;;;;;15.73;60.34;96848.12;127882;1093;25456;-92
2021/06/09 03:16:42;;;;;;;8.20;6.30;;;;;;;15.73;60.20;96848.12;127833;1093;113847;-92
2021/06/09 03:19:19;;;;;;;8.88;6.10;;;;;;;15.72;60.38;96846.54;127870;1093;25936;-90
2021/06/09 03:21:55;;;;;;;10.23;6.93;;;;;;;15.74;60.50;96842.47;127780;1093;113506;-88
2021/06/09 03:24:34;;;;;;;8.95;6.23;;;;;;;15.77;60.53;96842.97;127835;1093;33338;-89
2021/06/09 03:27:15;;;;;;;9.58;6.45;;;;;;;15.79;60.45;96841.57;127791;1091;113791;-89
2021/06/09 03:29:50;;;;;;;8.60;6.35;;;;;;;15.84;60.39;96845.98;127898;1093;24803;-90
2021/06/09 03:32:27;;;;;;;7.35;6.03;;;;;;;15.84;60.24;96838.76;127800;1093;113997;-88
2021/06/09 03:35:04;;;;;;;8.83;5.55;;;;;;;15.89;60.11;96840.50;127855;1093;25024;-92
2021/06/09 03:37:40;;;;;;;6.85;5.65;;;;;;;15.91;60.21;96841.80;127876;1093;23314;-90
2021/06/09 03:40:15;;;;;;;7.83;5.98;;;;;;;15.94;60.13;96835.83;127803;1093;113990;-89
2021/06/09 03:42:52;;;;;;;8.03;5.75;;;;;;;15.95;60.11;96833.95;127939;1093;23008;-89
2021/06/09 03:45:26;;;;;;;7.18;5.78;;;;;;;16.00;60.12;96842.62;127732;1093;114123;-89
2021/06/09 03:48:00;;;;;;;8.65;5.83;;;;;;;16.03;60.14;96844.67;127863;1093;22822;-92
2021/06/09 03:50:31;;;;;;;7.53;5.40;;;;;;;16.08;60.00;96842.98;127803;1092;114155;-94
2021/06/09 03:53:03;;;;;;;7.63;5.33;;;;;;;16.14;60.14;96844.41;127868;1093;26392;-89
2021/06/09 03:55:36;;;;;;;8.40;5.95;;;;;;;16.19;59.96;96850.44;127882;1093;22800;-89
2021/06/09 03:58:12;;;;;;;9.55;6.05;;;;;;;16.23;59.85;96856.73;127818;1093;114260;-89
2021/06/09 04:00:45;;;;;;;7.93;5.70;;;;;;;16.27;59.86;96856.91;127888;1093;25899;-89
2021/06/09 04:03:19;;;;;;;6.88;5.60;;;;;;;16.35;59.92;96874.89;127854;1093;113177;-88
2021/06/09 04:05:52;;;;;;;9.60;6.30;;;;;;;16.43;60.23;96876.02;127912;1093;24359;-86
2021/06/09 04:08:25;;;;;;;7.78;5.68;;;;;;;16.47;60.49;96880.45;127818;1093;114488;-88
2021/06/09 04:10:57;;;;;;;10.23;6.30;;;;;;;16.53;60.06;96883.77;127899;1093;25004;-89
2021/06/09 04:13:29;;;;;;;7.45;5.45;;;;;;;16.55;60.15;96889.60;127895;1091;26018;-89
2021/06/09 04:16:02;;;;;;;7.07;5.27;;;;;;;16.54;59.87;96888.02;127797;1093;113537;-87
2021/06/09 04:18:35;;;;;;;9.13;5.55;;;;;;;16.55;60.03;96885.03;127888;1092;24603;-92
2021/06/09 04:21:09;;;;;;;8.15;6.00;;;;;;;16.65;60.29;96886.66;127804;1092;114161;-89
2021/06/09 04:23:41;;;;;;;8.50;5.70;;;;;;;16.73;60.16;96880.55;127910;1093;26532;-88
2021/06/09 04:26:15;;;;;;;11.40;6.60;;;;;;;16.68;60.36;96877.23;127951;1092;22842;-89
2021/06/09 04:28:47;;;;;;;8.88;5.63;;;;;;;16.68;60.92;96871.88;127908;1092;113446;-88
2021/06/09 04:31:19;;;;;;;11.30;6.65;;;;;;;16.78;60.84;96882.31;127970;1092;22842;-88
2021/06/09 04:33:57;;;;;;;8.68;6.70;;;;;;;16.76;60.78;96873.81;127806;1092;114097;-88
2021/06/09 04:36:28;;;;;;;12.50;6.80;;;;;;;16.79;60.96;96883.89;127952;1091;24044;-88
2021/06/09 04:38:59;;;;;;;8.98;5.68;;;;;;;16.87;61.10;96875.86;127823;1093;113849;-88
2021/06/09 04:41:30;;;;;;;7.78;6.00;;;;;;;17.01;61.00;96875.73;127938;1093;25867;-88
2021/06/09 04:44:01;;;;;;;8.85;6.48;;;;;;;17.14;60.81;96876.70;127941;1093;22799;-87
2021/06/09 04:46:32;;;;;;;8.73;6.18;;;;;;;17.26;60.79;96876.88;127796;1092;114015;-87
2021/06/09 04:49:06;;;;;;;10.23;6.33;;;;;;;17.37;60.30;96882.72;127928;1093;23158;-88
2021/06/09 04:51:38;;;;;;;9.18;6.18;;;;;;;17.50;60.16;96881.78;127848;1093;113811;-87
2021/06/09 04:54:16;;;;;;;9.65;5.83;;;;;;;17.59;59.85;96879.08;127935;1092;24296;-89
2021/06/09 04:56:47;;;;;;;8.30;5.58;;;;;;;17.71;59.82;96871.22;127910;1093;113738;-88
2021/06/09 04:59:19;;;;;;;8.70;5.80;;;;;;;17.86;59.83;96872.61;127959;1093;27226;-87
2021/06/09 05:01:50;;;;;;;9.13;5.90;;;;;;;17.97;59.62;96874.64;127934;1093;22813;-86
2021/06/09 05:04:21;;;;;;;7.65;5.33;;;;;;;18.13;59.37;96876.81;127775;1093;113478;-86
2021/06/09 05:06:52;;;;;;;6.58;4.95;;;;;;;18.26;58.93;96884.67;127922;1093;22771;-87
2021/06/09 05:09:23;;;;;;;8.50;5.90;;;;;;;18.43;59.18;96880.34;127810;1092;114126;-87
2021/06/09 05:11:59;;;;;;;6.80;5.88;;;;;;;18.66;59.05;96879.81;127882;1093;35739;-87
2021/06/09 05:14:35;;;;;;;7.55;5.53;;;;;;;18.96;58.76;96885.18;127816;1093;113680;-86
2021/06/09 05:17:08;;;;;;;8.50;6.03;;;;;;;19.25;58.48;96884.36;127904;1092;22827;-87
2021/06/09 05:19:42;;;;;;;8.48;5.88;;;;;;;19.82;58.60;96876.48;127898;1093;25833;-87
2021/06/09 05:22:21;;;;;;;8.93;6.05;;;;;;;20.77;58.11;96881.95;127826;1092;114168;-89
2021/06/09 05:24:54;;;;;;;7.00;5.43;;;;;;;21.87;56.85;96891.41;127867;1094;33981;-88
2021/06/09 05:27:26;;;;;;;8.23;5.63;;;;;;;22.49;54.64;96886.47;127862;1093;113504;-88
2021/06/09 05:29:59;;;;;;;9.50;5.28;;;;;;;22.54;53.82;96888.14;127881;1093;22819;-87
2021/06/09 05:32:31;;;;;;;7.30;5.33;;;;;;;22.25;52.36;96889.34;127888;1092;113838;-87
2021/06/09 05:35:04;;;;;;;7.95;5.80;;;;;;;21.81;52.74;96876.56;127938;1093;22907;-86
2021/06/09 05:37:36;;;;;;;7.83;5.48;;;;;;;21.88;52.81;96882.17;127923;1093;24399;-85
2021/06/09 05:40:10;;;;;;;6.68;5.48;;;;;;;21.96;52.79;96887.75;127819;1092;113758;-89
2021/06/09 05:42:41;;;;;;;8.00;5.10;;;;;;;22.19;53.02;96889.58;127900;1093;22826;-89
2021/06/09 05:45:14;;;;;;;8.78;5.83;;;;;;;22.91;52.89;96886.73;127814;1093;114545;-87
2021/06/09 05:47:46;;;;;;;7.38;5.75;;;;;;;23.41;51.11;96887.84;127932;1093;23952;-87
2021/06/09 05:50:19;;;;;;;7.03;5.63;;;;;;;23.68;50.45;96892.31;127973;1093;23330;-86
2021/06/09 05:52:53;;;;;;;6.58;5.60;;;;;;;24.14;49.43;96886.20;127981;1093;113589;-88
2021/06/09 05:55:27;;;;;;;8.13;5.45;;;;;;;24.54;49.12;96888.48;127921;1093;24359;-87
2021/06/09 05:58:02;;;;;;;6.58;4.58;;;;;;;24.86;47.64;96887.06;127850;1090;113531;-88
2021/06/09 06:00:34;;;;;;;8.15;5.93;;;;;;;25.08;47.47;96890.14;127959;1091;23030;-87
2021/06/09 06:03:07;;;;;;;9.73;5.68;;;;;;;25.35;46.93;96888.98;127832;1093;114401;-89
2021/06/09 06:05:41;;;;;;;7.65;5.78;;;;;;;25.68;46.57;96887.44;127937;1091;22802;-88
2021/06/09 06:08:12;;;;;;;7.28;5.15;;;;;;;26.09;45.82;96895.70;127938;1093;23221;-86
2021/06/09 06:10:43;;;;;;;6.63;5.08;;;;;;;26.42;45.51;96903.82;127800;1093;113555;-86
2021/06/09 06:13:15;;;;;;;7.60;5.80;;;;;;;26.70;44.89;96899.79;127950;1093;23911;-91
2021/06/09 06:15:47;;;;;;;11.53;6.10;;;;;;;26.96;44.18;96899.61;127846;1090;113587;-88
2021/06/09 06:18:29;;;;;;;6.75;5.15;;;;;;;27.21;43.75;96902.53;127968;1093;25262;-87
2021/06/09 06:21:00;;;;;;;8.40;5.48;;;;;;;27.33;42.37;96894.05;127840;1092;113693;-87
2021/06/09 06:23:32;;;;;;;7.35;5.15;;;;;;;27.34;42.82;96895.61;127901;1093;22820;-86
2021/06/09 06:26:04;;;;;;;7.73;5.33;;;;;;;27.78;42.62;96892.73;127874;1093;27150;-90
2021/06/09 06:28:38;;;;;;;9.60;5.60;;;;;;;27.92;41.80;96894.73;127847;1091;114913;-86
2021/06/09 06:31:14;;;;;;;7.43;5.15;;;;;;;27.74;40.97;96889.22;127928;1091;23363;-90
2021/06/09 06:33:47;;;;;;;7.10;5.40;;;;;;;27.51;40.52;96897.64;127880;1093;114037;-86
2021/06/09 06:36:20;;;;;;;9.13;5.53;;;;;;;27.33;40.84;96901.44;128008;1093;23064;-87
2021/06/09 06:38:52;;;;;;;6.45;5.30;;;;;;;27.27;41.20;96898.28;127854;1092;114219;-86
2021/06/09 06:41:23;;;;;;;7.45;5.30;;;;;;;27.27;40.66;96901.00;127926;1091;33857;-85
2021/06/09 06:43:55;;;;;;;12.75;5.50;;;;;;;27.13;40.93;96904.42;127920;1093;22789;-85
2021/06/09 06:46:28;;;;;;;7.20;5.38;;;;;;;27.01;40.42;96895.77;127868;1092;113777;-86
2021/06/09 06:49:00;;;;;;;9.23;5.50;;;;;;;26.75;40.77;96900.24;127926;1093;22899;-86
2021/06/09 06:51:32;;;;;;;8.18;5.23;;;;;;;26.71;40.78;96899.41;127795;1093;114011;-86
2021/06/09 06:54:03;;;;;;;13.83;5.80;;;;;;;26.68;40.85;96896.67;127932;1093;22799;-86
2021/06/09 06:56:36;;;;;;;5.98;4.70;;;;;;;26.49;40.80;96900.41;127813;1091;114177;-86
2021/06/09 06:59:08;;;;;;;7.25;5.40;;;;;;;26.15;41.94;96896.91;127934;1093;22767;-90
2021/06/09 07:01:40;;;;;;;6.40;4.43;;;;;;;25.68;41.57;96895.59;127918;1093;22795;-89
2021/06/09 07:04:15;;;;;;;7.18;5.25;;;;;;;25.39;42.33;96900.66;127812;1091;115272;-87
2021/06/09 07:06:48;;;;;;;6.83;4.95;;;;;;;25.69;43.04;96895.25;127936;1092;26469;-87
2021/06/09 07:09:20;;;;;;;7.63;5.77;;;;;;;25.64;43.04;96892.84;127848;1092;113929;-88
2021/06/09 07:11:52;;;;;;;8.48;5.83;;;;;;;25.48;43.69;96900.39;127888;1093;22829;-87
2021/06/09 07:14:29;;;;;;;8.13;5.80;;;;;;;25.13;44.11;96906.09;127887;1093;22792;-87
2021/06/09 07:17:00;;;;;;;7.13;5.60;;;;;;;25.05;44.28;96915.27;127837;1093;114215;-86
2021/06/09 07:19:32;;;;;;;10.45;6.00;;;;;;;24.90;44.84;96913.45;127913;1093;32532;-89
2021/06/09 07:22:05;;;;;;;7.75;5.98;;;;;;;25.18;45.64;96918.55;127810;1093;113720;-87
2021/06/09 07:24:38;;;;;;;10.45;6.65;;;;;;;25.40;45.22;96921.22;127913;1093;23802;-85
2021/06/09 07:27:10;;;;;;;8.13;5.83;;;;;;;25.84;45.18;96917.92;127845;1093;115263;-85
2021/06/09 07:29:43;;;;;;;9.13;6.50;;;;;;;26.01;44.01;96919.28;127961;1093;23131;-85
2021/06/09 07:32:15;;;;;;;10.38;6.53;;;;;;;25.56;43.90;96917.54;127969;1092;22804;-86
2021/06/09 07:34:47;;;;;;;7.48;5.43;;;;;;;25.35;44.51;96918.05;127929;1093;114236;-86
2021/06/09 07:37:22;;;;;;;6.88;5.55;;;;;;;25.72;44.41;96918.16;127983;1093;32451;-86
2021/06/09 07:39:58;;;;;;;8.17;5.50;;;;;;;26.16;44.43;96925.66;127831;1093;114148;-86
2021/06/09 07:42:32;;;;;;;9.00;5.88;;;;;;;26.58;43.71;96931.55;127943;1091;22801;-86
2021/06/09 07:45:07;;;;;;;9.28;5.90;;;;;;;26.85;42.83;96931.39;127831;1093;114240;-86
2021/06/09 07:47:44;;;;;;;7.00;5.30;;;;;;;27.50;43.14;96925.27;127941;1092;22886;-87
2021/06/09 07:50:20;;;;;;;8.78;5.45;;;;;;;28.00;42.38;96933.67;127971;1093;26277;-87
2021/06/09 07:52:54;;;;;;;9.90;6.07;;;;;;;28.02;40.64;96934.09;127822;1093;113355;-87
2021/06/09 07:55:26;;;;;;;7.83;5.27;;;;;;;27.73;39.62;96923.08;127939;1093;22796;-90
2021/06/09 07:57:58;;;;;;;6.53;5.40;;;;;;;27.53;39.62;96927.22;127826;1093;113656;-87
2021/06/09 08:00:30;;;;;;;7.35;5.58;;;;;;;27.50;39.61;96931.48;127924;1093;22787;-87
2021/06/09 08:03:01;;;;;;;5.75;4.93;;;;;;;28.00;39.80;96925.50;127820;1093;113678;-87
2021/06/09 08:05:33;;;;;;;6.15;4.90;;;;;;;28.52;39.09;96923.32;127958;1092;22791;-88
2021/06/09 08:08:04;;;;;;;7.48;5.83;;;;;;;28.68;38.27;96932.69;127899;1093;22796;-90
2021/06/09 08:10:35;;;;;;;7.20;5.38;;;;;;;28.68;37.32;96934.64;127792;1093;113804;-89
2021/06/09 08:13:07;;;;;;;7.70;5.50;;;;;;;28.58;37.98;96928.02;127939;1091;22800;-88
2021/06/09 08:15:39;;;;;;;6.23;5.18;;;;;;;28.76;37.41;96925.30;127817;1093;114089;-89
2021/06/09 08:18:12;;;;;;;8.08;5.63;;;;;;;28.41;37.76;96920.57;127916;1092;22657;-87
2021/06/09 08:21:03;;;;;;;9.45;6.95;;;;;;;27.75;38.04;96928.92;127833;1093;114742;-87
2021/06/09 08:23:36;;;;;;;10.63;7.13;;;;;;;27.41;39.74;96933.77;127924;1092;25235;-86
2021/06/09 08:26:07;;;;;;;9.10;6.90;;;;;;;27.31;39.99;96931.77;127916;1093;22845;-86
2021/06/09 08:28:39;;;;;;;8.25;6.30;;;;;;;27.15;40.09;96925.81;127814;1093;113494;-86
2021/06/09 08:31:13;;;;;;;10.65;6.95;;;;;;;27.05;40.60;96929.26;127935;1093;22850;-86
2021/06/09 08:33:43;;;;;;;9.23;6.38;;;;;;;27.37;40.87;96938.41;127876;1092;114086;-87
2021/06/09 08:36:16;;;;;;;9.35;5.90;;;;;;;27.78;41.14;96946.45;127959;1093;22770;-87
2021/06/09 08:38:51;;;;;;;8.68;5.88;;;;;;;28.43;40.43;96931.88;127891;1093;114270;-87
2021/06/09 08:41:24;;;;;;;9.10;6.13;;;;;;;29.03;38.85;96933.91;127860;1093;33704;-86
2021/06/09 08:43:56;;;;;;;10.50;6.85;;;;;;;29.06;38.91;96938.58;127925;1093;23471;-87
2021/06/09 08:46:28;;;;;;;10.20;6.03;;;;;;;28.71;38.63;96936.58;127804;1093;113669;-87
2021/06/09 08:48:59;;;;;;;9.50;5.75;;;;;;;28.77;39.07;96940.50;127898;1092;26849;-91
2021/06/09 08:51:32;;;;;;;9.70;6.00;;;;;;;28.94;39.05;96942.48;127802;1093;113901;-88
2021/06/09 08:54:08;;;;;;;7.33;5.83;;;;;;;29.01;38.86;96941.71;127940;1093;22838;-86
2021/06/09 08:56:40;;;;;;;9.85;5.95;;;;;;;28.98;39.03;96937.01;127816;1091;113678;-89
2021/06/09 08:59:11;;;;;;;7.53;5.10;;;;;;;28.90;38.66;96943.66;127913;1093;22791;-89
2021/06/09 09:01:42;;;;;;;8.05;5.80;;;;;;;28.68;38.13;96949.05;127876;1093;24341;-88
2021/06/09 09:04:15;;;;;;;8.35;5.45;;;;;;;28.63;39.20;96943.22;127866;1092;114023;-87
2021/06/09 09:06:46;;;;;;;8.88;5.75;;;;;;;28.59;39.25;96947.89;127948;1093;23930;-88
2021/06/09 09:09:17;;;;;;;9.80;6.20;;;;;;;28.41;38.68;96947.84;127858;1093;113732;-89
2021/06/09 09:11:47;;;;;;;10.60;6.50;;;;;;;28.01;38.82;96959.77;127951;1093;23778;-88
2021/06/09 09:14:18;;;;;;;8.83;6.25;;;;;;;27.92;39.20;96951.17;127973;1092;22823;-91
2021/06/09 09:17:09;;;;;;;12.90;8.20;;;;;;;27.74;38.77;96948.38;127856;1093;113574;-88
2021/06/09 09:19:42;;;;;;;13.83;7.15;;;;;;;27.58;39.93;96962.25;127905;1093;22673;-89
2021/06/09 09:22:21;;;;;;;10.43;6.33;;;;;;;27.62;39.98;96952.17;127783;1093;114209;-89
2021/06/09 09:24:53;;;;;;;7.83;5.97;;;;;;;27.42;40.15;96948.16;127903;1091;24313;-88
2021/06/09 09:27:28;;;;;;;10.90;7.45;;;;;;;27.30;40.54;96954.69;127787;1093;113531;-88
2021/06/09 09:30:04;;;;;;;9.05;6.70;;;;;;;27.04;41.06;96958.41;127879;1092;22770;-91
2021/06/09 09:32:37;;;;;;;8.75;6.10;;;;;;;26.88;40.79;96955.90;127810;1093;113715;-89
2021/06/09 09:35:12;;;;;;;9.93;7.13;;;;;;;27.03;41.28;96954.13;127940;1093;22803;-93
2021/06/09 09:37:43;;;;;;;10.15;7.13;;;;;;;27.16;41.61;96958.09;127917;1093;24434;-88
2021/06/09 09:40:17;;;;;;;9.85;6.98;;;;;;;27.11;41.99;96958.45;127817;1092;114147;-86
2021/06/09 09:42:50;;;;;;;9.53;6.60;;;;;;;27.16;41.69;96947.20;128000;1093;23097;-86
2021/06/09 09:45:28;;;;;;;9.45;6.55;;;;;;;27.28;41.77;96957.02;127805;1093;113965;-86
2021/06/09 09:48:16;;;;;;;10.15;7.15;;;;;;;27.41;41.46;96946.59;127960;1093;23772;-87
2021/06/09 09:50:50;;;;;;;10.47;6.00;;;;;;;27.36;40.96;96944.23;127871;1093;113780;-86
2021/06/09 09:53:27;;;;;;;7.70;6.68;;;;;;;27.07;40.70;96946.77;127948;1092;27278;-85
2021/06/09 09:56:10;;;;;;;9.17;6.07;;;;;;;27.00;41.56;96941.22;127940;1093;22813;-86
2021/06/09 09:58:52;;;;;;;8.33;5.40;;;;;;;27.23;41.79;96937.54;127771;1092;113599;-88
2021/06/09 10:01:25;;;;;;;8.93;5.78;;;;;;;27.16;40.44;96939.04;127926;1093;22793;-88
2021/06/09 10:03:59;;;;;;;8.80;5.48;;;;;;;26.86;40.34;96946.55;127844;1092;113538;-88
2021/06/09 10:06:33;;;;;;;5.98;5.25;;;;;;;26.73;40.31;96946.05;127926;1093;22948;-93
2021/06/09 10:09:14;;;;;;;6.78;4.88;;;;;;;26.51;40.75;96953.25;127866;1093;113413;-89
2021/06/09 10:11:48;;;;;;;6.43;4.73;;;;;;;26.46;40.47;96942.69;127976;1093;24440;-89
2021/06/09 10:14:24;;;;;;;7.75;4.53;;;;;;;26.65;41.01;96939.00;127971;1092;22795;-90
2021/06/09 10:17:03;;;;;;;7.03;4.65;;;;;;;26.71;40.78;96942.93;127831;1093;114203;-86
2021/06/09 10:19:36;;;;;;;7.03;5.08;;;;;;;26.76;40.44;96944.55;127932;1093;27257;-89
2021/06/09 10:22:10;;;;;;;8.18;5.68;;;;;;;26.84;40.27;96941.49;127796;1093;114080;-89
2021/06/09 10:24:53;;;;;;;6.35;4.93;;;;;;;26.74;40.30;96938.67;127936;1093;22890;-89
2021/06/09 10:27:36;;;;;;;8.58;5.70;;;;;;;26.24;39.55;96938.95;127834;1093;114184;-87
2021/06/09 10:30:25;;;;;;;7.63;5.50;;;;;;;25.83;40.89;96940.81;127936;1093;23064;-88
2021/06/09 10:32:59;;;;;;;5.80;4.00;;;;;;;25.63;40.67;96926.58;127841;1093;114046;-88
2021/06/09 10:35:33;;;;;;;6.70;4.23;;;;;;;25.70;40.73;96940.26;127952;1092;23725;-89
2021/06/09 10:38:05;;;;;;;6.93;3.90;;;;;;;25.94;41.79;96938.23;127950;1093;22833;-87
2021/06/09 10:40:36;;;;;;;5.87;4.03;;;;;;;26.13;40.72;96935.34;127820;1092;113496;-87
2021/06/09 10:43:07;;;;;;;5.43;3.45;;;;;;;26.20;39.88;96934.65;127917;1093;22851;-87
2021/06/09 10:45:41;;;;;;;5.05;3.80;;;;;;;25.97;39.09;96927.40;127862;1091;114808;-87
2021/06/09 10:48:16;;;;;;;7.60;4.05;;;;;;;25.45;39.83;96929.03;127956;1093;22841;-87
2021/06/09 10:50:47;;;;;;;6.20;3.53;;;;;;;25.27;39.77;96921.80;127867;1093;114421;-88
2021/06/09 10:53:20;;;;;;;6.90;3.90;;;;;;;25.05;39.87;96920.69;127970;1093;22771;-86
2021/06/09 10:55:51;;;;;;;5.20;4.05;;;;;;;25.15;40.89;96915.43;127954;1091;22749;-87
2021/06/09 10:58:24;;;;;;;6.15;4.05;;;;;;;25.32;41.56;96916.05;127768;1093;113533;-87
2021/06/09 11:01:00;;;;;;;5.38;4.40;;;;;;;25.18;39.45;96911.20;127911;1093;22822;-87
2021/06/09 11:03:35;;;;;;;4.53;3.60;;;;;;;24.87;40.97;96902.19;127816;1093;114177;-88
2021/06/09 11:06:07;;;;;;;6.83;5.00;;;;;;;24.93;41.18;96904.61;127969;1092;23701;-88
2021/06/09 11:08:39;;;;;;;6.85;4.30;;;;;;;25.05;41.78;96904.41;127865;1093;114270;-88
2021/06/09 11:11:24;;;;;;;7.25;4.55;;;;;;;25.03;40.48;96907.49;127927;1092;31608;-87
2021/06/09 11:13:55;;;;;;;4.93;4.40;;;;;;;24.63;40.78;96902.56;127884;1091;24187;-87
2021/06/09 11:16:26;;;;;;;6.78;4.90;;;;;;;24.53;41.19;96906.69;127848;1093;113880;-88
2021/06/09 11:18:58;;;;;;;9.35;4.70;;;;;;;24.60;42.81;96899.80;127988;1092;22912;-88
2021/06/09 11:21:38;;;;;;;5.00;4.50;;;;;;;24.77;42.22;96899.30;127848;1092;114636;-88
2021/06/09 11:24:12;;;;;;;5.60;4.40;;;;;;;24.80;42.09;96896.67;127960;1093;22827;-88
2021/06/09 11:26:44;;;;;;;6.85;4.80;;;;;;;24.63;41.57;96891.72;127834;1093;113930;-88
2021/06/09 11:29:31;;;;;;;5.68;4.45;;;;;;;24.36;41.89;96890.13;127964;1093;22790;-89
2021/06/09 11:32:19;;;;;;;5.13;4.38;;;;;;;24.51;42.85;96886.51;127951;1093;22873;-89
2021/06/09 11:35:08;;;;;;;4.78;4.28;;;;;;;24.71;42.93;96884.50;127772;1091;113920;-87
2021/06/09 11:37:39;;;;;;;5.63;4.10;;;;;;;24.68;41.44;96888.72;127961;1093;22785;-88
2021/06/09 11:40:11;;;;;;;6.65;4.13;;;;;;;24.82;42.45;96874.61;127880;1092;113942;-89
2021/06/09 11:42:42;;;;;;;6.57;4.40;;;;;;;25.09;43.35;96884.34;127916;1092;35484;-88
2021/06/09 11:45:35;;;;;;;5.75;3.75;;;;;;;25.30;42.46;96875.70;127846;1093;113836;-88
2021/06/09 11:48:21;;;;;;;6.23;4.10;;;;;;;25.44;41.86;96872.40;127899;1092;25909;-89
2021/06/09 11:50:55;;;;;;;5.08;3.55;;;;;;;25.64;42.05;96870.34;127848;1093;113926;-88